sensor_id;sensor_type;location;lat;lon;timestamp;pressure;altitude;pressure_sealevel;temperature;humidity
24390;BME280;12510;56.468;-3.004;2023-05-07T00:01:08;100595.72;;;13.39;100.00
24390;BME280;12510;56.468;-3.004;2023-05-07T00:03:35;100596.72;;;13.38;100.00
24390;BME280;12510;56.468;-3.004;2023-05-07T00:06:02;100583.09;;;13.33;100.00
24390;BME280;12510;56.468;-3.004;2023-05-07T00:08:29;100588.00;;;13.46;100.00
24390;BME280;12510;56.468;-3.004;2023-05-07T00:10:56;100586.13;;;13.38;100.00
24390;BME280;12510;56.468;-3.004;2023-05-07T00:13:22;100582.63;;;13.38;100.00
24390;BME280;12510;56.468;-3.004;2023-05-07T00:15:48;100582.50;;;13.39;100.00
24390;BME280;12510;56.468;-3.004;2023-05-07T00:18:15;100575.09;;;13.25;100.00
24390;BME280;12510;56.468;-3.004;2023-05-07T00:20:42;100581.53;;;13.49;100.00
24390;BME280;12510;56.468;-3.004;2023-05-07T00:23:09;100584.16;;;13.40;100.00
24390;BME280;12510;56.468;-3.004;2023-05-07T00:25:35;100592.31;;;13.55;100.00
24390;BME280;12510;56.468;-3.004;2023-05-07T00:28:02;100587.16;;;13.46;100.00
24390;BME280;12510;56.468;-3.004;2023-05-07T00:30:29;100585.69;;;13.51;100.00
24390;BME280;12510;56.468;-3.004;2023-05-07T00:32:56;100582.22;;;13.51;100.00
24390;BME280;12510;56.468;-3.004;2023-05-07T00:35:22;100592.13;;;13.49;100.00
24390;BME280;12510;56.468;-3.004;2023-05-07T00:37:49;100598.59;;;13.46;100.00
24390;BME280;12510;56.468;-3.004;2023-05-07T00:40:15;100598.97;;;13.33;100.00
24390;BME280;12510;56.468;-3.004;2023-05-07T00:42:42;100600.34;;;13.37;100.00
24390;BME280;12510;56.468;-3.004;2023-05-07T00:45:29;100598.78;;;13.35;100.00
24390;BME280;12510;56.468;-3.004;2023-05-07T00:47:58;100602.72;;;13.49;100.00
24390;BME280;12510;56.468;-3.004;2023-05-07T00:50:26;100596.59;;;13.48;100.00
24390;BME280;12510;56.468;-3.004;2023-05-07T00:52:53;100602.16;;;13.37;100.00
24390;BME280;12510;56.468;-3.004;2023-05-07T00:55:21;100597.63;;;13.55;100.00
24390;BME280;12510;56.468;-3.004;2023-05-07T00:57:49;100593.34;;;13.54;100.00
24390;BME280;12510;56.468;-3.004;2023-05-07T01:00:17;100596.44;;;13.50;100.00
24390;BME280;12510;56.468;-3.004;2023-05-07T01:02:44;100607.94;;;13.67;100.00
24390;BME280;12510;56.468;-3.004;2023-05-07T01:05:12;100605.47;;;13.65;100.00
24390;BME280;12510;56.468;-3.004;2023-05-07T01:07:40;100600.19;;;13.65;100.00
24390;BME280;12510;56.468;-3.004;2023-05-07T01:10:08;100599.66;;;13.62;100.00
24390;BME280;12510;56.468;-3.004;2023-05-07T01:12:36;100603.34;;;13.43;100.00
24390;BME280;12510;56.468;-3.004;2023-05-07T01:15:05;100605.63;;;13.37;100.00
24390;BME280;12510;56.468;-3.004;2023-05-07T01:17:36;100610.81;;;13.47;100.00
24390;BME280;12510;56.468;-3.004;2023-05-07T01:20:06;100607.34;;;13.47;100.00
24390;BME280;12510;56.468;-3.004;2023-05-07T01:22:34;100611.00;;;13.54;100.00
24390;BME280;12510;56.468;-3.004;2023-05-07T01:25:04;100603.88;;;13.46;100.00
24390;BME280;12510;56.468;-3.004;2023-05-07T01:27:32;100600.22;;;13.47;100.00
24390;BME280;12510;56.468;-3.004;2023-05-07T01:30:00;100596.28;;;13.51;100.00
24390;BME280;12510;56.468;-3.004;2023-05-07T01:32:43;100587.88;;;13.56;100.00
24390;BME280;12510;56.468;-3.004;2023-05-07T01:35:17;100580.84;;;13.38;100.00
24390;BME280;12510;56.468;-3.004;2023-05-07T01:37:45;100586.41;;;13.62;100.00
24390;BME280;12510;56.468;-3.004;2023-05-07T01:40:13;100584.25;;;13.57;100.00
24390;BME280;12510;56.468;-3.004;2023-05-07T01:42:41;100596.81;;;13.55;100.00
24390;BME280;12510;56.468;-3.004;2023-05-07T01:45:09;100597.53;;;13.65;100.00
24390;BME280;12510;56.468;-3.004;2023-05-07T01:47:37;100601.56;;;13.51;100.00
24390;BME280;12510;56.468;-3.004;2023-05-07T01:50:07;100612.88;;;13.62;100.00
24390;BME280;12510;56.468;-3.004;2023-05-07T01:52:34;100602.91;;;13.55;100.00
24390;BME280;12510;56.468;-3.004;2023-05-07T01:55:01;100602.41;;;13.52;100.00
24390;BME280;12510;56.468;-3.004;2023-05-07T01:57:28;100602.78;;;13.57;100.00
24390;BME280;12510;56.468;-3.004;2023-05-07T01:59:54;100595.66;;;13.57;100.00
24390;BME280;12510;56.468;-3.004;2023-05-07T02:02:21;100600.84;;;13.67;100.00
24390;BME280;12510;56.468;-3.004;2023-05-07T02:04:47;100596.16;;;13.53;100.00
24390;BME280;12510;56.468;-3.004;2023-05-07T02:07:15;100591.19;;;13.58;100.00
24390;BME280;12510;56.468;-3.004;2023-05-07T02:09:42;100572.91;;;13.20;100.00
24390;BME280;12510;56.468;-3.004;2023-05-07T02:12:08;100570.88;;;13.58;100.00
24390;BME280;12510;56.468;-3.004;2023-05-07T02:14:35;100578.44;;;13.53;100.00
24390;BME280;12510;56.468;-3.004;2023-05-07T02:17:01;100582.59;;;13.56;100.00
24390;BME280;12510;56.468;-3.004;2023-05-07T02:19:28;100590.53;;;13.56;100.00
24390;BME280;12510;56.468;-3.004;2023-05-07T02:21:55;100593.50;;;13.53;100.00
24390;BME280;12510;56.468;-3.004;2023-05-07T02:24:21;100597.19;;;13.68;100.00
24390;BME280;12510;56.468;-3.004;2023-05-07T02:26:48;100595.13;;;13.54;100.00
24390;BME280;12510;56.468;-3.004;2023-05-07T02:29:14;100597.16;;;13.60;100.00
24390;BME280;12510;56.468;-3.004;2023-05-07T02:31:41;100601.53;;;13.69;100.00
24390;BME280;12510;56.468;-3.004;2023-05-07T02:34:07;100591.59;;;13.71;100.00
24390;BME280;12510;56.468;-3.004;2023-05-07T02:36:34;100594.09;;;13.73;100.00
24390;BME280;12510;56.468;-3.004;2023-05-07T02:39:06;100596.78;;;13.81;100.00
24390;BME280;12510;56.468;-3.004;2023-05-07T02:41:32;100587.56;;;13.59;100.00
24390;BME280;12510;56.468;-3.004;2023-05-07T02:43:59;100576.78;;;13.52;100.00
24390;BME280;12510;56.468;-3.004;2023-05-07T02:46:26;100574.41;;;13.75;100.00
24390;BME280;12510;56.468;-3.004;2023-05-07T02:48:59;100574.91;;;13.71;100.00
24390;BME280;12510;56.468;-3.004;2023-05-07T02:51:26;100573.72;;;13.65;100.00
24390;BME280;12510;56.468;-3.004;2023-05-07T02:53:55;100578.06;;;13.74;100.00
24390;BME280;12510;56.468;-3.004;2023-05-07T02:56:22;100578.06;;;13.74;100.00
24390;BME280;12510;56.468;-3.004;2023-05-07T02:58:48;100579.75;;;13.84;100.00
24390;BME280;12510;56.468;-3.004;2023-05-07T03:01:16;100595.00;;;13.90;100.00
24390;BME280;12510;56.468;-3.004;2023-05-07T03:03:51;100591.75;;;13.70;100.00
24390;BME280;12510;56.468;-3.004;2023-05-07T03:06:18;100597.94;;;13.79;100.00
24390;BME280;12510;56.468;-3.004;2023-05-07T03:08:44;100598.03;;;13.69;100.00
24390;BME280;12510;56.468;-3.004;2023-05-07T03:11:11;100598.91;;;13.78;100.00
24390;BME280;12510;56.468;-3.004;2023-05-07T03:13:37;100603.47;;;13.67;100.00
24390;BME280;12510;56.468;-3.004;2023-05-07T03:16:04;100603.19;;;13.70;100.00
24390;BME280;12510;56.468;-3.004;2023-05-07T03:18:31;100618.13;;;13.80;100.00
24390;BME280;12510;56.468;-3.004;2023-05-07T03:20:57;100616.94;;;13.82;100.00
24390;BME280;12510;56.468;-3.004;2023-05-07T03:23:24;100608.19;;;13.82;100.00
24390;BME280;12510;56.468;-3.004;2023-05-07T03:25:50;100614.09;;;13.75;100.00
24390;BME280;12510;56.468;-3.004;2023-05-07T03:28:17;100616.81;;;13.84;100.00
24390;BME280;12510;56.468;-3.004;2023-05-07T03:30:50;100612.72;;;13.98;100.00
24390;BME280;12510;56.468;-3.004;2023-05-07T03:33:17;100621.09;;;13.85;100.00
24390;BME280;12510;56.468;-3.004;2023-05-07T03:35:43;100619.09;;;13.79;100.00
24390;BME280;12510;56.468;-3.004;2023-05-07T03:38:11;100613.16;;;13.85;100.00
24390;BME280;12510;56.468;-3.004;2023-05-07T03:40:38;100616.81;;;13.84;100.00
24390;BME280;12510;56.468;-3.004;2023-05-07T03:43:05;100623.66;;;13.95;100.00
24390;BME280;12510;56.468;-3.004;2023-05-07T03:45:34;100620.25;;;13.76;100.00
24390;BME280;12510;56.468;-3.004;2023-05-07T03:48:12;100619.31;;;13.85;100.00
24390;BME280;12510;56.468;-3.004;2023-05-07T03:50:38;100616.75;;;13.75;100.00
24390;BME280;12510;56.468;-3.004;2023-05-07T03:53:05;100616.00;;;13.91;100.00
24390;BME280;12510;56.468;-3.004;2023-05-07T03:55:36;100622.50;;;13.97;100.00
24390;BME280;12510;56.468;-3.004;2023-05-07T03:58:02;100612.22;;;13.94;100.00
24390;BME280;12510;56.468;-3.004;2023-05-07T04:00:29;100612.06;;;13.61;100.00
24390;BME280;12510;56.468;-3.004;2023-05-07T04:02:59;100607.06;;;13.58;100.00
24390;BME280;12510;56.468;-3.004;2023-05-07T04:05:30;100600.38;;;13.72;100.00
24390;BME280;12510;56.468;-3.004;2023-05-07T04:08:01;100602.66;;;13.67;100.00
24390;BME280;12510;56.468;-3.004;2023-05-07T04:10:35;100602.91;;;13.82;100.00
24390;BME280;12510;56.468;-3.004;2023-05-07T04:13:06;100604.41;;;13.84;100.00
24390;BME280;12510;56.468;-3.004;2023-05-07T04:15:35;100609.88;;;13.91;100.00
24390;BME280;12510;56.468;-3.004;2023-05-07T04:18:02;100612.03;;;13.96;100.00
24390;BME280;12510;56.468;-3.004;2023-05-07T04:20:29;100603.59;;;13.84;100.00
24390;BME280;12510;56.468;-3.004;2023-05-07T04:23:00;100602.66;;;13.67;100.00
24390;BME280;12510;56.468;-3.004;2023-05-07T04:25:27;100604.56;;;13.83;100.00
24390;BME280;12510;56.468;-3.004;2023-05-07T04:28:01;100602.34;;;13.70;100.00
24390;BME280;12510;56.468;-3.004;2023-05-07T04:30:29;100602.56;;;13.85;100.00
24390;BME280;12510;56.468;-3.004;2023-05-07T04:32:56;100596.06;;;13.71;100.00
24390;BME280;12510;56.468;-3.004;2023-05-07T04:35:25;100610.97;;;13.72;100.00
24390;BME280;12510;56.468;-3.004;2023-05-07T04:37:51;100602.47;;;13.60;100.00
24390;BME280;12510;56.468;-3.004;2023-05-07T04:40:18;100609.38;;;13.53;100.00
24390;BME280;12510;56.468;-3.004;2023-05-07T04:42:44;100606.94;;;13.60;100.00
24390;BME280;12510;56.468;-3.004;2023-05-07T04:45:12;100594.59;;;13.77;100.00
24390;BME280;12510;56.468;-3.004;2023-05-07T04:47:41;100597.94;;;13.79;100.00
24390;BME280;12510;56.468;-3.004;2023-05-07T04:50:08;100599.41;;;13.73;100.00
24390;BME280;12510;56.468;-3.004;2023-05-07T04:52:36;100599.59;;;13.80;100.00
24390;BME280;12510;56.468;-3.004;2023-05-07T04:55:03;100597.94;;;13.79;100.00
24390;BME280;12510;56.468;-3.004;2023-05-07T04:57:34;100602.72;;;13.83;100.00
24390;BME280;12510;56.468;-3.004;2023-05-07T05:00:01;100604.00;;;13.71;100.00
24390;BME280;12510;56.468;-3.004;2023-05-07T05:02:28;100602.38;;;13.78;100.00
24390;BME280;12510;56.468;-3.004;2023-05-07T05:04:54;100607.22;;;13.83;100.00
24390;BME280;12510;56.468;-3.004;2023-05-07T05:07:22;100610.78;;;13.73;100.00
24390;BME280;12510;56.468;-3.004;2023-05-07T05:09:49;100615.88;;;13.93;100.00
24390;BME280;12510;56.468;-3.004;2023-05-07T05:12:15;100617.25;;;14.05;100.00
24390;BME280;12510;56.468;-3.004;2023-05-07T05:14:41;100615.88;;;13.93;100.00
24390;BME280;12510;56.468;-3.004;2023-05-07T05:17:09;100622.38;;;14.07;100.00
24390;BME280;12510;56.468;-3.004;2023-05-07T05:19:36;100623.84;;;14.01;100.00
24390;BME280;12510;56.468;-3.004;2023-05-07T05:22:02;100619.84;;;13.97;100.00
24390;BME280;12510;56.468;-3.004;2023-05-07T05:24:31;100622.59;;;13.87;100.00
24390;BME280;12510;56.468;-3.004;2023-05-07T05:26:57;100622.31;;;13.90;100.00
24390;BME280;12510;56.468;-3.004;2023-05-07T05:29:29;100625.97;;;13.98;100.00
24390;BME280;12510;56.468;-3.004;2023-05-07T05:31:57;100627.41;;;13.84;100.00
24390;BME280;12510;56.468;-3.004;2023-05-07T05:34:25;100626.84;;;14.06;100.00
24390;BME280;12510;56.468;-3.004;2023-05-07T05:36:52;100632.81;;;14.17;100.00
24390;BME280;12510;56.468;-3.004;2023-05-07T05:39:19;100632.16;;;14.15;100.00
24390;BME280;12510;56.468;-3.004;2023-05-07T05:41:46;100635.28;;;14.10;100.00
24390;BME280;12510;56.468;-3.004;2023-05-07T05:44:13;100641.44;;;14.11;100.00
24390;BME280;12510;56.468;-3.004;2023-05-07T05:46:42;100641.38;;;14.02;100.00
24390;BME280;12510;56.468;-3.004;2023-05-07T05:49:08;100651.63;;;13.97;100.00
24390;BME280;12510;56.468;-3.004;2023-05-07T05:51:35;100649.84;;;14.14;100.00
24390;BME280;12510;56.468;-3.004;2023-05-07T05:54:01;100655.63;;;14.01;100.00
24390;BME280;12510;56.468;-3.004;2023-05-07T05:56:28;100654.22;;;13.89;100.00
24390;BME280;12510;56.468;-3.004;2023-05-07T05:58:54;100650.94;;;14.30;100.00
24390;BME280;12510;56.468;-3.004;2023-05-07T06:01:21;100662.53;;;14.37;100.00
24390;BME280;12510;56.468;-3.004;2023-05-07T06:03:49;100655.44;;;14.46;100.00
24390;BME280;12510;56.468;-3.004;2023-05-07T06:06:16;100671.69;;;14.51;100.00
24390;BME280;12510;56.468;-3.004;2023-05-07T06:08:44;100667.22;;;14.59;100.00
24390;BME280;12510;56.468;-3.004;2023-05-07T06:11:13;100662.63;;;14.19;100.00
24390;BME280;12510;56.468;-3.004;2023-05-07T06:13:42;100666.31;;;14.34;100.00
24390;BME280;12510;56.468;-3.004;2023-05-07T06:16:08;100669.34;;;14.48;100.00
24390;BME280;12510;56.468;-3.004;2023-05-07T06:18:35;100674.84;;;14.63;100.00
24390;BME280;12510;56.468;-3.004;2023-05-07T06:21:02;100679.09;;;14.73;100.00
24390;BME280;12510;56.468;-3.004;2023-05-07T06:23:32;100678.53;;;14.62;100.00
24390;BME280;12510;56.468;-3.004;2023-05-07T06:26:00;100669.00;;;14.42;100.00
24390;BME280;12510;56.468;-3.004;2023-05-07T06:28:32;100669.19;;;14.49;100.00
24390;BME280;12510;56.468;-3.004;2023-05-07T06:31:18;100672.69;;;14.50;100.00
24390;BME280;12510;56.468;-3.004;2023-05-07T06:33:58;100665.72;;;14.49;100.00
24390;BME280;12510;56.468;-3.004;2023-05-07T06:36:31;100666.06;;;14.54;100.00
24390;BME280;12510;56.468;-3.004;2023-05-07T06:39:00;100675.03;;;14.61;100.00
24390;BME280;12510;56.468;-3.004;2023-05-07T06:41:27;100665.84;;;14.39;100.00
24390;BME280;12510;56.468;-3.004;2023-05-07T06:43:56;100664.69;;;14.93;100.00
24390;BME280;12510;56.468;-3.004;2023-05-07T06:46:29;100671.31;;;14.97;100.00
24390;BME280;12510;56.468;-3.004;2023-05-07T06:48:56;100680.25;;;14.87;100.00
24390;BME280;12510;56.468;-3.004;2023-05-07T06:51:23;100676.09;;;14.93;100.00
24390;BME280;12510;56.468;-3.004;2023-05-07T06:53:50;100681.41;;;15.01;100.00
24390;BME280;12510;56.468;-3.004;2023-05-07T06:56:16;100684.06;;;15.01;100.00
24390;BME280;12510;56.468;-3.004;2023-05-07T06:58:43;100672.75;;;14.66;100.00
24390;BME280;12510;56.468;-3.004;2023-05-07T07:01:10;100674.28;;;14.85;100.00
24390;BME280;12510;56.468;-3.004;2023-05-07T07:03:37;100670.00;;;14.93;100.00
24390;BME280;12510;56.468;-3.004;2023-05-07T07:06:04;100680.09;;;14.89;100.00
24390;BME280;12510;56.468;-3.004;2023-05-07T07:08:32;100682.38;;;14.84;100.00
24390;BME280;12510;56.468;-3.004;2023-05-07T07:10:59;100685.41;;;15.05;100.00
24390;BME280;12510;56.468;-3.004;2023-05-07T07:13:25;100693.34;;;14.89;100.00
24390;BME280;12510;56.468;-3.004;2023-05-07T07:15:52;100684.84;;;14.69;100.00
24390;BME280;12510;56.468;-3.004;2023-05-07T07:18:19;100676.72;;;14.70;100.00
24390;BME280;12510;56.468;-3.004;2023-05-07T07:20:48;100685.03;;;14.84;100.00
24390;BME280;12510;56.468;-3.004;2023-05-07T07:23:14;100680.94;;;15.06;100.00
24390;BME280;12510;56.468;-3.004;2023-05-07T07:25:41;100685.09;;;15.25;100.00
24390;BME280;12510;56.468;-3.004;2023-05-07T07:28:08;100691.03;;;15.19;100.00
24390;BME280;12510;56.468;-3.004;2023-05-07T07:30:37;100696.34;;;14.94;100.00
24390;BME280;12510;56.468;-3.004;2023-05-07T07:33:04;100706.13;;;15.02;100.00
24390;BME280;12510;56.468;-3.004;2023-05-07T07:35:35;100700.03;;;15.18;100.00
24390;BME280;12510;56.468;-3.004;2023-05-07T07:38:02;100707.97;;;15.18;100.00
24390;BME280;12510;56.468;-3.004;2023-05-07T07:40:29;100705.94;;;14.87;100.00
24390;BME280;12510;56.468;-3.004;2023-05-07T07:42:56;100693.38;;;15.14;100.00
24390;BME280;12510;56.468;-3.004;2023-05-07T07:45:23;100697.88;;;15.38;100.00
24390;BME280;12510;56.468;-3.004;2023-05-07T07:47:51;100703.31;;;15.36;100.00
24390;BME280;12510;56.468;-3.004;2023-05-07T07:50:17;100704.97;;;15.04;100.00
24390;BME280;12510;56.468;-3.004;2023-05-07T07:52:44;100706.47;;;15.15;100.00
24390;BME280;12510;56.468;-3.004;2023-05-07T07:55:13;100703.16;;;15.30;100.00
24390;BME280;12510;56.468;-3.004;2023-05-07T07:57:44;100704.97;;;15.46;100.00
24390;BME280;12510;56.468;-3.004;2023-05-07T08:00:11;100713.09;;;15.69;100.00
24390;BME280;12510;56.468;-3.004;2023-05-07T08:02:44;100714.09;;;15.43;100.00
24390;BME280;12510;56.468;-3.004;2023-05-07T08:05:18;100709.94;;;15.73;100.00
24390;BME280;12510;56.468;-3.004;2023-05-07T08:07:45;100713.09;;;15.77;100.00
24390;BME280;12510;56.468;-3.004;2023-05-07T08:10:13;100715.94;;;15.67;100.00
24390;BME280;12510;56.468;-3.004;2023-05-07T08:12:51;100713.44;;;15.41;100.00
24390;BME280;12510;56.468;-3.004;2023-05-07T08:15:17;100720.72;;;15.72;100.00
24390;BME280;12510;56.468;-3.004;2023-05-07T08:17:44;100724.53;;;15.69;100.00
24390;BME280;12510;56.468;-3.004;2023-05-07T08:20:11;100731.16;;;15.73;100.00
24390;BME280;12510;56.468;-3.004;2023-05-07T08:22:38;100730.00;;;15.92;100.00
24390;BME280;12510;56.468;-3.004;2023-05-07T08:25:07;100731.00;;;15.67;100.00
24390;BME280;12510;56.468;-3.004;2023-05-07T08:27:33;100728.19;;;15.93;100.00
24390;BME280;12510;56.468;-3.004;2023-05-07T08:30:00;100729.69;;;15.96;100.00
24390;BME280;12510;56.468;-3.004;2023-05-07T08:32:26;100742.13;;;15.95;100.00
24390;BME280;12510;56.468;-3.004;2023-05-07T08:34:54;100738.06;;;16.24;100.00
24390;BME280;12510;56.468;-3.004;2023-05-07T08:37:21;100745.09;;;16.00;100.00
24390;BME280;12510;56.468;-3.004;2023-05-07T08:39:48;100736.50;;;15.82;100.00
24390;BME280;12510;56.468;-3.004;2023-05-07T08:42:20;100749.94;;;16.05;100.00
24390;BME280;12510;56.468;-3.004;2023-05-07T08:44:50;100744.09;;;15.76;100.00
24390;BME280;12510;56.468;-3.004;2023-05-07T08:47:22;100749.28;;;15.95;100.00
24390;BME280;12510;56.468;-3.004;2023-05-07T08:49:51;100748.28;;;15.87;100.00
24390;BME280;12510;56.468;-3.004;2023-05-07T08:52:18;100753.25;;;15.90;100.00
24390;BME280;12510;56.468;-3.004;2023-05-07T08:54:46;100756.41;;;15.86;100.00
24390;BME280;12510;56.468;-3.004;2023-05-07T08:57:14;100757.06;;;15.80;100.00
24390;BME280;12510;56.468;-3.004;2023-05-07T08:59:40;100760.03;;;15.68;100.00
24390;BME280;12510;56.468;-3.004;2023-05-07T09:02:09;100762.88;;;15.42;100.00
24390;BME280;12510;56.468;-3.004;2023-05-07T09:04:38;100755.72;;;15.42;100.00
24390;BME280;12510;56.468;-3.004;2023-05-07T09:07:04;100755.41;;;15.46;100.00
24390;BME280;12510;56.468;-3.004;2023-05-07T09:09:34;100759.38;;;15.41;100.00
24390;BME280;12510;56.468;-3.004;2023-05-07T09:12:03;100759.53;;;15.32;100.00
24390;BME280;12510;56.468;-3.004;2023-05-07T09:14:33;100754.25;;;15.32;100.00
24390;BME280;12510;56.468;-3.004;2023-05-07T09:17:00;100754.22;;;15.23;100.00
24390;BME280;12510;56.468;-3.004;2023-05-07T09:19:27;100759.22;;;15.35;100.00
24390;BME280;12510;56.468;-3.004;2023-05-07T09:22:03;100755.41;;;15.46;100.00
24390;BME280;12510;56.468;-3.004;2023-05-07T09:24:37;100760.56;;;15.55;100.00
24390;BME280;12510;56.468;-3.004;2023-05-07T09:27:07;100764.50;;;15.43;100.00
24390;BME280;12510;56.468;-3.004;2023-05-07T09:29:36;100771.00;;;15.40;100.00
24390;BME280;12510;56.468;-3.004;2023-05-07T09:32:06;100770.00;;;15.41;100.00
24390;BME280;12510;56.468;-3.004;2023-05-07T09:34:33;100764.72;;;15.83;100.00
24390;BME280;12510;56.468;-3.004;2023-05-07T09:37:05;100761.69;;;15.78;100.00
24390;BME280;12510;56.468;-3.004;2023-05-07T09:39:39;100758.56;;;15.66;100.00
24390;BME280;12510;56.468;-3.004;2023-05-07T09:42:07;100759.72;;;15.71;100.00
24390;BME280;12510;56.468;-3.004;2023-05-07T09:44:35;100756.06;;;15.56;100.00
24390;BME280;12510;56.468;-3.004;2023-05-07T09:47:05;100765.72;;;15.82;100.00
24390;BME280;12510;56.468;-3.004;2023-05-07T09:49:39;100759.22;;;15.68;100.00
24390;BME280;12510;56.468;-3.004;2023-05-07T09:52:13;100760.72;;;15.95;100.00
24390;BME280;12510;56.468;-3.004;2023-05-07T09:54:46;100756.41;;;15.69;100.00
24390;BME280;12510;56.468;-3.004;2023-05-07T09:57:17;100753.09;;;15.67;100.00
24390;BME280;12510;56.468;-3.004;2023-05-07T09:59:49;100755.75;;;15.92;100.00
24390;BME280;12510;56.468;-3.004;2023-05-07T10:02:18;100750.22;;;16.18;100.00
24390;BME280;12510;56.468;-3.004;2023-05-07T10:04:49;100759.53;;;16.14;100.00
24390;BME280;12510;56.468;-3.004;2023-05-07T10:07:19;100757.91;;;15.97;100.00
24390;BME280;12510;56.468;-3.004;2023-05-07T10:09:49;100761.66;;;16.19;100.00
24390;BME280;12510;56.468;-3.004;2023-05-07T10:12:27;100762.94;;;16.39;100.00
24390;BME280;12510;56.468;-3.004;2023-05-07T10:14:54;100758.03;;;16.68;100.00
24390;BME280;12510;56.468;-3.004;2023-05-07T10:17:23;100765.38;;;16.57;100.00
24390;BME280;12510;56.468;-3.004;2023-05-07T10:19:50;100763.09;;;16.38;100.00
24390;BME280;12510;56.468;-3.004;2023-05-07T10:22:20;100759.69;;;16.21;100.00
24390;BME280;12510;56.468;-3.004;2023-05-07T10:24:49;100767.22;;;16.49;100.00
24390;BME280;12510;56.468;-3.004;2023-05-07T10:27:20;100761.94;;;16.40;100.00
24390;BME280;12510;56.468;-3.004;2023-05-07T10:32:39;100767.13;;;16.25;100.00
24390;BME280;12510;56.468;-3.004;2023-05-07T10:35:21;100759.56;;;16.54;100.00
24390;BME280;12510;56.468;-3.004;2023-05-07T10:37:49;100761.38;;;17.01;100.00
24390;BME280;12510;56.468;-3.004;2023-05-07T10:40:17;100757.22;;;17.22;100.00
24390;BME280;12510;56.468;-3.004;2023-05-07T10:42:58;100762.00;;;17.88;100.00
24390;BME280;12510;56.468;-3.004;2023-05-07T10:45:33;100766.69;;;17.71;100.00
24390;BME280;12510;56.468;-3.004;2023-05-07T10:48:09;100768.00;;;17.90;100.00
24390;BME280;12510;56.468;-3.004;2023-05-07T10:50:38;100770.28;;;18.31;100.00
24390;BME280;12510;56.468;-3.004;2023-05-07T10:58:48;100776.16;;;18.26;100.00
24390;BME280;12510;56.468;-3.004;2023-05-07T11:01:50;100790.22;;;18.35;100.00
24390;BME280;12510;56.468;-3.004;2023-05-07T11:04:27;100794.22;;;18.01;100.00
24390;BME280;12510;56.468;-3.004;2023-05-07T11:07:23;100787.06;;;17.40;100.00
24390;BME280;12510;56.468;-3.004;2023-05-07T11:09:56;100792.59;;;17.54;100.00
24390;BME280;12510;56.468;-3.004;2023-05-07T11:12:51;100787.94;;;17.33;100.00
24390;BME280;12510;56.468;-3.004;2023-05-07T11:15:37;100797.50;;;17.19;100.00
24390;BME280;12510;56.468;-3.004;2023-05-07T11:18:09;100804.06;;;17.00;100.00
24390;BME280;12510;56.468;-3.004;2023-05-07T11:20:51;100808.97;;;16.88;100.00
24390;BME280;12510;56.468;-3.004;2023-05-07T11:26:07;100807.28;;;16.87;100.00
24390;BME280;12510;56.468;-3.004;2023-05-07T11:31:05;100798.69;;;16.76;100.00
24390;BME280;12510;56.468;-3.004;2023-05-07T11:33:32;100803.94;;;16.93;100.00
24390;BME280;12510;56.468;-3.004;2023-05-07T11:36:05;100813.59;;;16.94;100.00
24390;BME280;12510;56.468;-3.004;2023-05-07T11:38:38;100813.84;;;17.07;100.00
24390;BME280;12510;56.468;-3.004;2023-05-07T11:41:05;100804.50;;;16.80;100.00
24390;BME280;12510;56.468;-3.004;2023-05-07T11:43:32;100800.84;;;17.13;100.00
24390;BME280;12510;56.468;-3.004;2023-05-07T11:46:12;100804.06;;;17.08;100.00
24390;BME280;12510;56.468;-3.004;2023-05-07T11:48:40;100806.75;;;17.00;100.00
24390;BME280;12510;56.468;-3.004;2023-05-07T11:51:07;100804.22;;;17.06;100.00
24390;BME280;12510;56.468;-3.004;2023-05-07T11:53:42;100802.09;;;17.25;100.00
24390;BME280;12510;56.468;-3.004;2023-05-07T11:56:10;100805.56;;;17.57;100.00
24390;BME280;12510;56.468;-3.004;2023-05-07T11:58:37;100805.63;;;17.49;100.00
24390;BME280;12510;56.468;-3.004;2023-05-07T12:01:06;100801.91;;;17.35;100.00
24390;BME280;12510;56.468;-3.004;2023-05-07T12:03:33;100802.81;;;17.65;100.00
24390;BME280;12510;56.468;-3.004;2023-05-07T12:05:59;100797.78;;;17.70;100.00
24390;BME280;12510;56.468;-3.004;2023-05-07T12:08:26;100798.00;;;17.84;100.00
24390;BME280;12510;56.468;-3.004;2023-05-07T12:10:54;100796.81;;;17.86;100.00
24390;BME280;12510;56.468;-3.004;2023-05-07T12:13:22;100800.56;;;17.77;100.00
24390;BME280;12510;56.468;-3.004;2023-05-07T12:15:52;100798.81;;;17.92;100.00
24390;BME280;12510;56.468;-3.004;2023-05-07T12:18:20;100797.25;;;17.98;100.00
24390;BME280;12510;56.468;-3.004;2023-05-07T12:20:47;100802.78;;;18.12;100.00
24390;BME280;12510;56.468;-3.004;2023-05-07T12:23:14;100807.13;;;17.89;100.00
24390;BME280;12510;56.468;-3.004;2023-05-07T12:25:42;100807.72;;;18.00;100.00
24390;BME280;12510;56.468;-3.004;2023-05-07T12:28:16;100801.88;;;18.34;100.00
24390;BME280;12510;56.468;-3.004;2023-05-07T12:30:43;100803.63;;;18.57;100.00
24390;BME280;12510;56.468;-3.004;2023-05-07T12:33:11;100804.63;;;18.56;100.00
24390;BME280;12510;56.468;-3.004;2023-05-07T12:35:39;100804.09;;;18.46;100.00
24390;BME280;12510;56.468;-3.004;2023-05-07T12:38:14;100814.00;;;18.67;100.00
24390;BME280;12510;56.468;-3.004;2023-05-07T12:40:44;100812.09;;;18.75;100.00
24390;BME280;12510;56.468;-3.004;2023-05-07T12:43:23;100817.78;;;18.28;100.00
24390;BME280;12510;56.468;-3.004;2023-05-07T12:45:52;100824.94;;;18.27;100.00
24390;BME280;12510;56.468;-3.004;2023-05-07T12:48:20;100819.53;;;18.50;100.00
24390;BME280;12510;56.468;-3.004;2023-05-07T12:50:50;100818.69;;;18.05;100.00
24390;BME280;12510;56.468;-3.004;2023-05-07T12:53:20;100822.19;;;18.65;100.00